Time;durP1;ratioP1;P1;durP2;ratioP2;P2;SDS_P1;SDS_P2;PMS_P1;PMS_P2;Temp;Humidity;BMP_temperature;BMP_pressure;BME280_temperature;BME280_humidity;BME280_pressure;Samples;Min_cycle;Max_cycle;Signal;HPM_P1;HPM_P2
2023/09/25 00:00:34;;;;;;;3.08;1.88;;;;;;;12.34;100.00;102082.84;4894207;29;20478;-70
2023/09/25 00:03:01;;;;;;;8.48;2.65;;;;;;;12.32;100.00;102090.22;4894245;29;20047;-70
2023/09/25 00:05:28;;;;;;;3.22;2.63;;;;;;;12.30;100.00;102081.53;4892703;29;20024;-70
2023/09/25 00:07:54;;;;;;;2.88;2.17;;;;;;;12.29;100.00;102087.91;4893861;29;20096;-70
2023/09/25 00:10:20;;;;;;;3.10;2.22;;;;;;;12.28;100.00;102083.53;4897498;29;20032;-70
2023/09/25 00:12:45;;;;;;;3.17;2.05;;;;;;;12.25;100.00;102084.72;4897829;29;20029;-70
2023/09/25 00:15:11;;;;;;;3.15;2.45;;;;;;;12.24;100.00;102088.41;4897592;29;20392;-71
2023/09/25 00:17:37;;;;;;;2.85;2.20;;;;;;;12.23;100.00;102091.25;4897621;29;20045;-70
2023/09/25 00:20:04;;;;;;;6.10;2.88;;;;;;;12.23;100.00;102093.94;4897636;29;20599;-70
2023/09/25 00:22:30;;;;;;;9.05;2.88;;;;;;;12.20;100.00;102092.44;4897700;29;20127;-70
2023/09/25 00:24:56;;;;;;;5.28;2.35;;;;;;;12.17;100.00;102090.13;4897424;29;20033;-70
2023/09/25 00:27:23;;;;;;;4.95;2.67;;;;;;;12.15;100.00;102092.13;4897750;29;20120;-70
2023/09/25 00:29:48;;;;;;;4.72;2.75;;;;;;;12.14;100.00;102086.97;4897371;29;20112;-70
2023/09/25 00:32:14;;;;;;;3.65;2.50;;;;;;;12.10;100.00;102082.97;4897493;29;20115;-70
2023/09/25 00:34:39;;;;;;;3.85;2.25;;;;;;;12.13;100.00;102090.66;4897110;29;20388;-70
2023/09/25 00:37:05;;;;;;;6.07;3.03;;;;;;;12.07;100.00;102076.97;4897407;29;20036;-70
2023/09/25 00:39:30;;;;;;;6.07;2.47;;;;;;;12.10;100.00;102080.31;4896088;29;20060;-70
2023/09/25 00:41:56;;;;;;;4.50;2.13;;;;;;;12.07;100.00;102089.50;4897396;29;20036;-70
2023/09/25 00:44:22;;;;;;;6.90;2.50;;;;;;;12.07;100.00;102086.84;4880523;29;20028;-70
2023/09/25 00:46:48;;;;;;;6.40;2.55;;;;;;;12.04;100.00;102089.88;4897252;29;20076;-70
2023/09/25 00:49:14;;;;;;;4.47;2.28;;;;;;;12.01;100.00;102085.72;4880301;29;20473;-70
2023/09/25 00:51:40;;;;;;;6.15;3.03;;;;;;;12.00;100.00;102080.56;4897096;29;20036;-70
2023/09/25 00:54:06;;;;;;;4.57;2.00;;;;;;;12.00;100.00;102086.72;4897018;29;20437;-70
2023/09/25 00:56:32;;;;;;;4.28;2.10;;;;;;;11.96;100.00;102080.06;4897068;29;20040;-70
2023/09/25 00:58:57;;;;;;;4.78;2.45;;;;;;;11.97;100.00;102083.56;4880165;29;20477;-70
2023/09/25 01:01:23;;;;;;;3.78;2.30;;;;;;;11.96;100.00;102082.72;4896902;29;20032;-70
2023/09/25 01:03:49;;;;;;;4.35;2.40;;;;;;;11.95;100.00;102082.91;4879860;29;20033;-70
2023/09/25 01:06:14;;;;;;;7.20;2.83;;;;;;;11.94;100.00;102089.25;4879992;29;20037;-70
2023/09/25 01:08:40;;;;;;;4.60;2.53;;;;;;;11.92;100.00;102088.59;4896628;29;20389;-70
2023/09/25 01:11:07;;;;;;;3.42;2.03;;;;;;;11.93;100.00;102092.94;4880048;29;20036;-70
2023/09/25 01:13:33;;;;;;;6.03;2.42;;;;;;;11.81;100.00;102077.25;4896770;29;20146;-70
2023/09/25 01:15:58;;;;;;;4.90;2.47;;;;;;;11.90;100.00;102087.97;4896609;29;20080;-70
2023/09/25 01:18:24;;;;;;;4.20;2.10;;;;;;;11.91;100.00;102094.97;4896647;29;20032;-70
2023/09/25 01:20:49;;;;;;;5.43;2.50;;;;;;;11.88;100.00;102096.13;4879136;29;20040;-70
2023/09/25 01:23:15;;;;;;;9.23;3.70;;;;;;;11.85;100.00;102089.28;4896564;29;20065;-70
2023/09/25 01:25:40;;;;;;;5.35;2.55;;;;;;;11.82;100.00;102088.78;4896489;29;20044;-70
2023/09/25 01:28:05;;;;;;;6.28;2.83;;;;;;;11.76;100.00;102082.31;4896347;29;20096;-70
2023/09/25 01:30:31;;;;;;;3.47;2.03;;;;;;;11.83;100.00;102090.44;4896094;29;20068;-70
2023/09/25 01:32:57;;;;;;;4.35;1.88;;;;;;;11.74;100.00;102076.31;4896183;29;20060;-70
2023/09/25 01:35:24;;;;;;;6.78;3.15;;;;;;;11.56;100.00;102041.81;4879531;29;20040;-70
2023/09/25 01:37:54;;;;;;;4.93;2.38;;;;;;;11.78;100.00;102082.94;4895065;29;20555;-70
2023/09/25 01:40:19;;;;;;;4.22;2.45;;;;;;;11.78;100.00;102084.78;4896126;29;20021;-70
2023/09/25 01:42:46;;;;;;;5.25;3.15;;;;;;;11.75;100.00;102080.63;4896168;29;20056;-70
2023/09/25 01:45:13;;;;;;;3.25;2.10;;;;;;;11.75;100.00;102088.66;4896236;29;20028;-70
2023/09/25 01:47:40;;;;;;;4.07;2.40;;;;;;;11.73;100.00;102076.47;4896154;29;20032;-70
2023/09/25 01:50:08;;;;;;;6.35;3.47;;;;;;;11.71;100.00;102079.31;4895596;29;20037;-70
2023/09/25 01:52:34;;;;;;;7.75;3.63;;;;;;;11.65;100.00;102076.50;4896017;29;20674;-70
2023/09/25 01:54:59;;;;;;;3.75;1.85;;;;;;;11.65;100.00;102082.66;4894747;29;20056;-70
2023/09/25 01:57:24;;;;;;;6.30;3.10;;;;;;;11.58;100.00;102073.66;4878892;29;20613;-70
2023/09/25 01:59:50;;;;;;;7.13;3.20;;;;;;;11.56;100.00;102075.72;4895897;29;20056;-70
2023/09/25 02:02:15;;;;;;;4.78;2.15;;;;;;;11.61;100.00;102086.72;4894575;29;20032;-70
2023/09/25 02:04:41;;;;;;;5.13;2.78;;;;;;;11.57;100.00;102078.19;4895803;29;20061;-70
2023/09/25 02:07:06;;;;;;;2.78;1.77;;;;;;;11.55;100.00;102076.69;4895705;29;20055;-71
2023/09/25 02:09:31;;;;;;;4.82;2.10;;;;;;;11.50;100.00;102065.69;4895667;29;20192;-70
2023/09/25 02:11:56;;;;;;;5.57;2.88;;;;;;;11.50;100.00;102077.25;4894406;29;20092;-70
2023/09/25 02:14:22;;;;;;;5.07;2.55;;;;;;;11.41;100.00;102060.38;4895420;29;20043;-70
2023/09/25 02:16:47;;;;;;;4.35;2.30;;;;;;;11.46;100.00;102067.06;4895446;29;20056;-70
2023/09/25 02:19:13;;;;;;;5.63;2.65;;;;;;;11.47;100.00;102072.22;4895532;29;20032;-70
2023/09/25 02:21:38;;;;;;;7.20;2.45;;;;;;;11.46;100.00;102073.22;4895373;29;20036;-70
2023/09/25 02:24:04;;;;;;;5.25;2.90;;;;;;;11.43;100.00;102070.09;4894118;29;20040;-70
2023/09/25 02:26:29;;;;;;;4.88;2.55;;;;;;;11.44;100.00;102069.06;4893992;29;20032;-70
2023/09/25 02:28:55;;;;;;;2.75;2.30;;;;;;;11.42;100.00;102061.22;4895268;29;20040;-71
2023/09/25 02:31:20;;;;;;;4.93;2.15;;;;;;;11.40;100.00;102066.75;4894419;29;20510;-70
2023/09/25 02:33:46;;;;;;;4.07;2.35;;;;;;;11.40;100.00;102065.91;4895168;29;20054;-70
2023/09/25 02:36:12;;;;;;;4.40;1.80;;;;;;;11.40;100.00;102071.25;4895289;29;20111;-71
2023/09/25 02:38:38;;;;;;;4.15;2.53;;;;;;;11.39;100.00;102064.22;4895291;29;20036;-70
2023/09/25 02:41:03;;;;;;;6.78;1.98;;;;;;;11.35;100.00;102061.09;4895064;29;20029;-70
2023/09/25 02:43:29;;;;;;;6.85;3.05;;;;;;;11.36;100.00;102068.09;4894873;29;20400;-70
2023/09/25 02:45:54;;;;;;;2.80;1.85;;;;;;;11.32;100.00;102060.59;4894945;29;20051;-70
2023/09/25 02:48:21;;;;;;;4.22;2.42;;;;;;;11.34;100.00;102064.78;4878098;29;20036;-70
2023/09/25 02:50:47;;;;;;;4.50;2.10;;;;;;;11.33;100.00;102065.75;4877998;29;20974;-70
2023/09/25 02:53:12;;;;;;;3.30;1.90;;;;;;;11.31;100.00;102064.25;4894836;29;20033;-71
2023/09/25 02:55:37;;;;;;;4.78;2.53;;;;;;;11.29;100.00;102069.78;4894713;29;20055;-71
2023/09/25 02:58:03;;;;;;;4.45;2.10;;;;;;;11.31;100.00;102074.94;4894700;29;20126;-70
2023/09/25 03:00:29;;;;;;;5.40;3.00;;;;;;;11.27;100.00;102065.63;4894712;29;20650;-71
2023/09/25 03:02:54;;;;;;;5.30;2.33;;;;;;;11.28;100.00;102067.28;4893507;29;20037;-71
2023/09/25 03:05:19;;;;;;;3.65;2.30;;;;;;;11.18;100.00;102062.13;4894642;29;20040;-70
2023/09/25 03:07:45;;;;;;;3.55;2.00;;;;;;;11.27;100.00;102073.63;4894762;29;20474;-70
2023/09/25 03:10:11;;;;;;;5.10;2.30;;;;;;;11.18;100.00;102060.28;4894550;29;20069;-71
2023/09/25 03:12:37;;;;;;;5.47;2.78;;;;;;;11.23;100.00;102070.47;4877794;29;20055;-70
2023/09/25 03:15:04;;;;;;;4.43;2.38;;;;;;;11.21;100.00;102074.31;4894490;29;20477;-70
2023/09/25 03:17:32;;;;;;;5.28;2.38;;;;;;;11.17;100.00;102079.97;4894505;29;20060;-70
2023/09/25 03:19:57;;;;;;;5.88;2.95;;;;;;;11.17;100.00;102079.16;4894721;29;20500;-70
2023/09/25 03:22:23;;;;;;;3.60;2.25;;;;;;;11.15;100.00;102078.50;4877985;29;20036;-70
2023/09/25 03:24:48;;;;;;;4.38;2.60;;;;;;;11.15;100.00;102070.47;4894493;29;20040;-70
2023/09/25 03:27:15;;;;;;;4.22;2.50;;;;;;;11.07;100.00;102057.97;4894493;29;20484;-70
2023/09/25 03:29:40;;;;;;;4.68;2.25;;;;;;;11.10;100.00;102062.16;4894265;29;20032;-71
2023/09/25 03:32:07;;;;;;;5.60;2.42;;;;;;;11.09;100.00;102064.00;4894261;29;20033;-70
2023/09/25 03:34:32;;;;;;;5.82;2.50;;;;;;;11.10;100.00;102062.16;4894382;29;20504;-70
2023/09/25 03:36:57;;;;;;;3.95;2.50;;;;;;;11.08;100.00;102069.47;4894319;29;20036;-70
2023/09/25 03:39:23;;;;;;;5.22;2.55;;;;;;;11.09;100.00;102061.31;4894547;29;20035;-70
2023/09/25 03:41:48;;;;;;;4.50;2.03;;;;;;;11.07;100.00;102059.81;4894296;29;20033;-70
2023/09/25 03:44:13;;;;;;;5.50;2.70;;;;;;;11.02;100.00;102057.66;4897795;29;20024;-70
2023/09/25 03:46:39;;;;;;;3.40;1.73;;;;;;;11.04;100.00;102070.84;4898202;29;20096;-70
2023/09/25 03:49:05;;;;;;;7.00;3.60;;;;;;;11.00;100.00;102066.84;4898109;29;20123;-70
2023/09/25 03:51:32;;;;;;;3.88;2.28;;;;;;;11.01;100.00;102072.00;4897779;29;20040;-70
2023/09/25 03:53:58;;;;;;;11.35;2.65;;;;;;;11.01;100.00;102065.84;4898148;29;20028;-70
2023/09/25 03:56:23;;;;;;;5.60;2.63;;;;;;;11.00;100.00;102070.34;4898164;29;20099;-70
2023/09/25 03:58:48;;;;;;;6.68;2.35;;;;;;;10.94;100.00;102077.19;4897950;29;20028;-70
2023/09/25 04:01:14;;;;;;;3.15;2.60;;;;;;;10.97;100.00;102076.84;4897927;29;20037;-70
2023/09/25 04:03:39;;;;;;;5.78;2.65;;;;;;;10.95;100.00;102073.53;4897936;29;20028;-70
2023/09/25 04:06:05;;;;;;;10.60;2.60;;;;;;;10.95;100.00;102076.19;4897949;29;20425;-70
2023/09/25 04:08:30;;;;;;;4.40;2.20;;;;;;;10.92;100.00;102076.50;4897743;29;20445;-70
2023/09/25 04:10:55;;;;;;;5.60;2.90;;;;;;;10.95;100.00;102072.66;4897770;29;20123;-70
2023/09/25 04:13:22;;;;;;;6.45;3.55;;;;;;;10.88;100.00;102067.19;4897680;29;20132;-70
2023/09/25 04:15:50;;;;;;;4.00;2.60;;;;;;;10.95;100.00;102080.69;4897604;29;20084;-70
2023/09/25 04:18:18;;;;;;;8.02;3.45;;;;;;;10.91;100.00;102072.19;4897532;29;20040;-70
2023/09/25 04:20:43;;;;;;;6.18;3.10;;;;;;;10.95;100.00;102078.88;4897485;29;20033;-70
2023/09/25 04:23:09;;;;;;;3.67;2.40;;;;;;;10.96;100.00;102082.38;4880626;29;20084;-70
2023/09/25 04:25:35;;;;;;;3.80;2.75;;;;;;;10.95;100.00;102076.19;4897700;29;20354;-70
2023/09/25 04:28:00;;;;;;;5.80;2.90;;;;;;;10.87;100.00;102060.19;4880768;29;20139;-70
2023/09/25 04:30:26;;;;;;;4.70;2.90;;;;;;;10.92;100.00;102070.34;4897307;29;20441;-70
2023/09/25 04:32:54;;;;;;;4.15;2.83;;;;;;;10.94;100.00;102087.03;4897446;29;20032;-70
2023/09/25 04:35:20;;;;;;;4.57;2.80;;;;;;;10.88;100.00;102083.22;4897545;29;20032;-70
2023/09/25 04:37:46;;;;;;;5.20;2.70;;;;;;;10.89;100.00;102084.03;4897387;29;20033;-70
2023/09/25 04:40:32;;;;;;;4.95;3.00;;;;;;;10.90;100.00;102086.53;4897351;29;20062;-70
2023/09/25 04:42:57;;;;;;;6.15;3.58;;;;;;;10.88;100.00;102088.53;4897302;29;20032;-70
2023/09/25 04:45:23;;;;;;;4.18;2.95;;;;;;;10.86;100.00;102084.38;4895911;29;20055;-70
2023/09/25 04:47:53;;;;;;;6.80;2.78;;;;;;;10.91;100.00;102096.22;4897165;29;20036;-70
2023/09/25 04:50:23;;;;;;;4.82;2.30;;;;;;;10.90;100.00;102094.56;4896989;29;20039;-70
2023/09/25 04:52:49;;;;;;;4.25;2.55;;;;;;;10.91;100.00;102096.22;4897007;29;20038;-70
2023/09/25 04:55:15;;;;;;;5.93;2.45;;;;;;;10.89;100.00;102092.88;4896132;29;20044;-70
2023/09/25 04:57:42;;;;;;;6.85;2.95;;;;;;;10.92;100.00;102089.84;4896979;29;20127;-70
2023/09/25 05:00:21;;;;;;;4.57;2.45;;;;;;;10.93;100.00;102094.22;4897075;29;20032;-70
2023/09/25 05:02:48;;;;;;;3.20;2.15;;;;;;;10.97;100.00;102089.34;4896677;29;20616;-70
2023/09/25 05:05:15;;;;;;;6.97;3.13;;;;;;;10.97;100.00;102092.84;4896651;29;20107;-70
2023/09/25 05:07:41;;;;;;;6.28;3.03;;;;;;;10.98;100.00;102085.72;4896534;29;20188;-70
2023/09/25 05:10:11;;;;;;;6.10;2.60;;;;;;;11.01;100.00;102089.88;4896769;29;20040;-70
2023/09/25 05:12:38;;;;;;;3.17;2.08;;;;;;;10.99;100.00;102084.69;4896469;29;20392;-70
2023/09/25 05:15:05;;;;;;;3.95;2.55;;;;;;;10.99;100.00;102081.19;4896643;29;20495;-70
2023/09/25 05:17:31;;;;;;;4.50;2.50;;;;;;;10.99;100.00;102084.69;4896337;29;20048;-70
2023/09/25 05:19:56;;;;;;;5.93;2.70;;;;;;;11.04;100.00;102089.53;4895880;29;20028;-70
2023/09/25 05:22:21;;;;;;;5.45;2.80;;;;;;;11.07;100.00;102099.88;4896065;29;20037;-70
2023/09/25 05:24:48;;;;;;;4.90;2.40;;;;;;;11.06;100.00;102085.69;4896119;29;20033;-70
2023/09/25 05:27:14;;;;;;;4.72;2.75;;;;;;;11.07;100.00;102091.84;4896145;29;20043;-71
2023/09/25 05:29:39;;;;;;;5.10;2.55;;;;;;;11.07;100.00;102094.53;4896009;29;20426;-70
2023/09/25 05:32:04;;;;;;;6.32;3.13;;;;;;;11.08;100.00;102093.50;4895445;29;20478;-70
2023/09/25 05:34:30;;;;;;;3.38;2.35;;;;;;;11.09;100.00;102093.34;4895352;29;20036;-70
2023/09/25 05:36:56;;;;;;;3.30;2.30;;;;;;;11.10;100.00;102097.69;4895952;29;20033;-70
2023/09/25 05:39:24;;;;;;;6.75;2.63;;;;;;;11.11;100.00;102099.38;4896213;29;20025;-70
2023/09/25 05:41:50;;;;;;;6.32;3.08;;;;;;;11.13;100.00;102107.19;4894681;29;20412;-70
2023/09/25 05:44:15;;;;;;;6.50;3.58;;;;;;;11.13;100.00;102107.19;4895878;29;20029;-71
2023/09/25 05:46:41;;;;;;;4.50;2.25;;;;;;;11.15;100.00;102100.69;4893937;29;20041;-70
2023/09/25 05:49:07;;;;;;;4.70;2.92;;;;;;;11.17;100.00;102103.19;4894715;29;20055;-70
2023/09/25 05:51:32;;;;;;;5.80;3.10;;;;;;;11.14;100.00;102098.19;4895658;29;20120;-71
2023/09/25 05:53:57;;;;;;;5.32;2.50;;;;;;;11.19;100.00;102103.88;4895661;29;20036;-70
2023/09/25 05:56:23;;;;;;;4.75;2.25;;;;;;;11.19;100.00;102098.53;4895708;29;20044;-70
2023/09/25 05:58:48;;;;;;;3.88;2.28;;;;;;;11.22;100.00;102098.19;4895636;29;20032;-70
2023/09/25 06:01:14;;;;;;;5.35;2.65;;;;;;;11.24;100.00;102103.31;4895697;29;20146;-71
2023/09/25 06:03:39;;;;;;;6.32;2.58;;;;;;;11.17;100.00;102090.66;4895772;29;20068;-71
2023/09/25 06:06:05;;;;;;;5.25;2.50;;;;;;;11.27;100.00;102109.19;4878668;29;20050;-70
2023/09/25 06:08:30;;;;;;;4.60;2.38;;;;;;;11.25;100.00;102105.84;4895715;29;20112;-70
2023/09/25 06:11:02;;;;;;;4.20;2.58;;;;;;;11.30;100.00;102111.50;4894055;29;20040;-70
2023/09/25 06:13:27;;;;;;;6.88;2.42;;;;;;;11.32;100.00;102112.19;4895693;29;20504;-70
2023/09/25 06:15:52;;;;;;;6.97;3.67;;;;;;;11.39;100.00;102121.16;4895267;29;20088;-70
2023/09/25 06:18:18;;;;;;;5.68;3.13;;;;;;;11.43;100.00;102118.16;4895365;29;20123;-70
2023/09/25 06:20:43;;;;;;;7.50;3.17;;;;;;;11.41;100.00;102111.13;4895327;29;20565;-70
2023/09/25 06:23:09;;;;;;;5.13;2.90;;;;;;;11.50;100.00;102119.13;4895387;29;20590;-70
2023/09/25 06:25:35;;;;;;;4.93;2.85;;;;;;;11.52;100.00;102122.47;4895345;29;20032;-71
2023/09/25 06:28:02;;;;;;;5.15;2.55;;;;;;;11.55;100.00;102128.31;4895431;29;20407;-75
2023/09/25 06:30:27;;;;;;;9.52;4.63;;;;;;;11.57;100.00;102120.13;4895166;29;20036;-70
2023/09/25 06:32:53;;;;;;;7.25;3.30;;;;;;;11.64;100.00;102131.78;4894923;29;20033;-70
2023/09/25 06:35:18;;;;;;;6.10;3.70;;;;;;;11.67;100.00;102126.09;4895089;29;20032;-70
2023/09/25 06:37:43;;;;;;;4.78;2.65;;;;;;;11.71;100.00;102127.44;4895102;29;20032;-70
2023/09/25 06:40:09;;;;;;;6.63;3.25;;;;;;;11.76;100.00;102125.06;4894945;29;20080;-70
2023/09/25 06:42:37;;;;;;;7.70;4.47;;;;;;;11.72;100.00;102115.72;4894838;29;20045;-70
2023/09/25 06:45:03;;;;;;;5.53;2.38;;;;;;;11.91;100.00;102133.22;4894884;29;20127;-70
2023/09/25 06:47:28;;;;;;;6.22;3.65;;;;;;;11.97;100.00;102129.00;4894869;29;20040;-70
2023/09/25 06:49:54;;;;;;;7.45;3.20;;;;;;;12.03;100.00;102128.31;4894713;29;20036;-70
2023/09/25 06:52:19;;;;;;;7.20;2.72;;;;;;;12.08;100.00;102123.28;4894407;29;20465;-70
2023/09/25 06:54:44;;;;;;;9.70;3.30;;;;;;;12.17;100.00;102121.41;4894644;29;20029;-70
2023/09/25 06:57:10;;;;;;;6.40;3.58;;;;;;;12.24;100.00;102123.19;4893466;29;20040;-71
2023/09/25 06:59:36;;;;;;;8.00;4.10;;;;;;;12.33;100.00;102120.47;4894798;29;20115;-70
2023/09/25 07:02:01;;;;;;;6.63;3.30;;;;;;;12.37;100.00;102121.78;4894398;29;20028;-70
2023/09/25 07:04:27;;;;;;;8.43;3.33;;;;;;;12.47;100.00;102123.22;4894696;29;20150;-70
2023/09/25 07:06:52;;;;;;;6.45;3.30;;;;;;;12.55;100.00;102124.16;4894483;29;20108;-70
2023/09/25 07:09:17;;;;;;;5.20;3.30;;;;;;;12.62;100.00;102122.44;4894216;29;20143;-70
2023/09/25 07:11:44;;;;;;;5.68;2.95;;;;;;;12.71;100.00;102116.84;4894351;29;20115;-71
2023/09/25 07:14:09;;;;;;;6.80;3.47;;;;;;;12.82;100.00;102122.78;4877550;29;20037;-70
2023/09/25 07:16:35;;;;;;;6.32;3.40;;;;;;;12.89;100.00;102127.25;4894261;29;20079;-70
2023/09/25 07:19:00;;;;;;;6.35;3.25;;;;;;;12.94;100.00;102119.50;4894041;29;20029;-70
2023/09/25 07:21:26;;;;;;;5.82;3.25;;;;;;;13.06;100.00;102127.09;4861763;29;20036;-70
2023/09/25 07:23:51;;;;;;;5.53;3.10;;;;;;;13.19;100.00;102123.78;4894142;29;20036;-70
2023/09/25 07:26:17;;;;;;;6.50;3.20;;;;;;;13.36;100.00;102119.94;4892806;29;20124;-70
2023/09/25 07:28:47;;;;;;;7.68;3.45;;;;;;;13.46;98.80;102133.09;4894199;29;20028;-70
2023/09/25 07:31:23;;;;;;;6.55;3.90;;;;;;;13.59;99.71;102122.53;4892832;29;20036;-70
2023/09/25 07:33:55;;;;;;;6.40;2.80;;;;;;;13.77;100.00;102116.81;4886322;29;20036;-70
2023/09/25 07:36:21;;;;;;;8.25;3.67;;;;;;;13.81;98.16;102115.44;4886869;29;20043;-71
2023/09/25 07:38:47;;;;;;;6.68;3.88;;;;;;;13.98;98.79;102114.19;4887205;29;20040;-72
2023/09/25 07:41:13;;;;;;;7.05;3.42;;;;;;;14.09;96.52;102120.06;4886948;29;20107;-71
2023/09/25 07:43:39;;;;;;;7.85;3.55;;;;;;;14.23;97.98;102127.28;4886974;29;20103;-71
2023/09/25 07:46:05;;;;;;;5.20;2.83;;;;;;;14.32;96.08;102114.56;4869878;29;20047;-71
2023/09/25 07:48:30;;;;;;;5.82;3.13;;;;;;;14.43;94.81;102120.25;4886737;29;20052;-71
2023/09/25 07:50:58;;;;;;;6.38;3.45;;;;;;;14.50;94.45;102112.28;4886572;29;20032;-70
2023/09/25 07:53:28;;;;;;;6.38;3.13;;;;;;;14.60;97.64;102117.34;4869533;29;20540;-70
2023/09/25 07:55:54;;;;;;;7.10;3.30;;;;;;;14.68;93.33;102117.22;4886709;29;20076;-69
2023/09/25 07:58:19;;;;;;;6.93;2.95;;;;;;;14.76;93.66;102103.66;4886837;29;20456;-69
2023/09/25 08:00:47;;;;;;;5.28;3.50;;;;;;;14.81;93.39;102113.81;4886740;29;20028;-69
2023/09/25 08:03:16;;;;;;;5.38;3.35;;;;;;;14.90;90.55;102118.84;4886385;29;20032;-69
2023/09/25 08:05:42;;;;;;;5.93;2.80;;;;;;;15.04;91.33;102127.88;4889887;29;20061;-72
2023/09/25 08:08:11;;;;;;;7.10;3.10;;;;;;;15.10;90.95;102134.31;4893890;29;20037;-71
2023/09/25 08:10:41;;;;;;;4.82;2.80;;;;;;;15.16;91.03;102136.22;4893849;29;20147;-71
2023/09/25 08:13:08;;;;;;;3.95;2.55;;;;;;;15.21;91.12;102122.19;4893717;29;20060;-71
2023/09/25 08:15:35;;;;;;;4.85;2.30;;;;;;;15.30;89.69;102124.53;4893730;29;20032;-71
2023/09/25 08:18:01;;;;;;;6.07;2.53;;;;;;;15.43;89.67;102128.31;4893963;29;20461;-71
2023/09/25 08:20:27;;;;;;;5.80;2.85;;;;;;;15.47;88.71;102116.97;4893697;29;20040;-71
2023/09/25 08:22:53;;;;;;;9.05;2.83;;;;;;;15.58;86.82;102129.03;4893800;29;20045;-71
2023/09/25 08:25:19;;;;;;;3.50;2.00;;;;;;;15.66;88.39;102128.88;4893758;29;20067;-71
2023/09/25 08:27:45;;;;;;;5.78;2.42;;;;;;;15.62;84.67;102118.72;4893760;29;20072;-71
2023/09/25 08:30:12;;;;;;;5.85;2.25;;;;;;;15.67;85.98;102122.47;4895158;29;20036;-72
2023/09/25 08:32:37;;;;;;;2.92;2.05;;;;;;;15.66;82.63;102122.66;4897206;29;20046;-72
2023/09/25 08:35:03;;;;;;;4.90;2.80;;;;;;;15.69;85.38;102130.34;4897236;29;20040;-72
2023/09/25 08:37:29;;;;;;;5.07;2.28;;;;;;;15.71;87.31;102121.06;4897082;29;20493;-71
2023/09/25 08:39:55;;;;;;;3.25;2.20;;;;;;;15.77;85.64;102124.81;4897617;29;20051;-72
2023/09/25 08:42:23;;;;;;;6.13;2.38;;;;;;;15.84;86.78;102125.69;4897926;29;20040;-71
2023/09/25 08:44:51;;;;;;;9.85;2.42;;;;;;;15.95;88.07;102114.34;4897302;29;20051;-71
2023/09/25 08:47:18;;;;;;;6.05;2.40;;;;;;;16.06;88.73;102109.41;4897128;29;20032;-72
2023/09/25 08:49:46;;;;;;;7.68;2.60;;;;;;;16.17;85.35;102108.84;4897048;29;20112;-71
2023/09/25 08:52:12;;;;;;;4.25;2.60;;;;;;;16.24;85.26;102108.84;4896858;29;20056;-71
2023/09/25 08:54:37;;;;;;;4.55;2.42;;;;;;;16.31;85.64;102101.63;4880112;29;20123;-71
2023/09/25 08:57:04;;;;;;;5.25;2.72;;;;;;;16.38;84.18;102107.84;4896961;29;20039;-71
2023/09/25 08:59:31;;;;;;;7.05;2.92;;;;;;;16.46;83.67;102109.53;4896808;29;20033;-71
2023/09/25 09:01:56;;;;;;;6.35;2.35;;;;;;;16.57;83.18;102108.91;4896785;29;20085;-71
2023/09/25 09:04:25;;;;;;;6.63;2.55;;;;;;;16.68;82.50;102115.53;4896792;29;20036;-71
2023/09/25 09:06:50;;;;;;;5.65;2.40;;;;;;;16.72;80.22;102117.63;4896763;29;20107;-71
2023/09/25 09:09:15;;;;;;;8.60;3.80;;;;;;;16.74;81.59;102112.00;4896569;29;20131;-72
2023/09/25 09:11:53;;;;;;;4.57;2.90;;;;;;;16.86;82.01;102113.91;4896732;29;20115;-71
2023/09/25 09:14:42;;;;;;;5.25;2.50;;;;;;;16.93;82.85;102111.22;4895352;29;20393;-71
2023/09/25 09:17:09;;;;;;;6.93;2.50;;;;;;;16.93;80.27;102107.72;4894809;29;20052;-71
2023/09/25 09:19:45;;;;;;;6.47;2.45;;;;;;;17.08;82.51;102109.16;4896488;29;20028;-71
2023/09/25 09:22:13;;;;;;;8.38;3.28;;;;;;;17.19;82.45;102109.56;4879437;29;20080;-72
2023/09/25 09:24:39;;;;;;;5.75;2.20;;;;;;;17.28;79.35;102113.69;4879820;29;20124;-71
2023/09/25 09:27:08;;;;;;;7.75;2.80;;;;;;;17.31;79.78;102099.78;4896654;29;20076;-71
2023/09/25 09:29:38;;;;;;;8.57;3.03;;;;;;;17.35;79.53;102097.50;4896322;29;20043;-72
2023/09/25 09:32:04;;;;;;;5.90;2.95;;;;;;;17.41;80.80;102094.75;4896293;29;20084;-72
2023/09/25 09:34:30;;;;;;;6.88;2.28;;;;;;;17.50;79.73;102095.34;4896310;29;20032;-72
2023/09/25 09:36:55;;;;;;;5.90;2.80;;;;;;;17.60;79.98;102094.91;4896121;29;20036;-71
2023/09/25 09:39:22;;;;;;;3.50;2.50;;;;;;;17.68;80.71;102100.06;4896151;29;20032;-72
2023/09/25 09:41:50;;;;;;;4.53;2.10;;;;;;;17.71;80.21;102091.53;4895716;29;20064;-71
2023/09/25 09:44:16;;;;;;;3.78;2.08;;;;;;;17.77;81.36;102093.41;4894736;29;20059;-71
2023/09/25 09:46:44;;;;;;;6.07;2.58;;;;;;;17.71;79.77;102096.94;4895945;29;20481;-71
2023/09/25 09:49:12;;;;;;;5.80;2.45;;;;;;;17.69;79.36;102109.84;4895767;29;20033;-71
2023/09/25 09:51:39;;;;;;;8.65;3.13;;;;;;;17.69;79.73;102112.53;4895808;29;20047;-71
2023/09/25 09:54:05;;;;;;;5.00;2.17;;;;;;;17.79;81.62;102104.84;4894451;29;20492;-71
2023/09/25 09:56:34;;;;;;;6.28;2.35;;;;;;;17.87;81.41;102104.59;4895511;29;20040;-71
2023/09/25 09:59:02;;;;;;;5.05;2.30;;;;;;;17.98;80.42;102110.38;4895694;29;20469;-71
2023/09/25 10:01:28;;;;;;;7.90;2.28;;;;;;;18.03;80.96;102113.25;4895667;29;20140;-71
2023/09/25 10:03:54;;;;;;;4.72;2.63;;;;;;;18.07;79.82;102112.59;4895678;29;20093;-72
2023/09/25 10:06:26;;;;;;;4.70;2.25;;;;;;;18.15;79.90;102108.81;4894602;29;20118;-71
2023/09/25 10:09:06;;;;;;;4.28;2.05;;;;;;;18.20;78.51;102118.97;4895543;29;20028;-71
2023/09/25 10:11:32;;;;;;;6.75;2.00;;;;;;;18.19;77.98;102123.56;4895688;29;20123;-71
2023/09/25 10:14:04;;;;;;;3.00;1.67;;;;;;;18.22;77.99;102115.00;4895480;29;21215;-72
2023/09/25 10:16:33;;;;;;;7.38;1.80;;;;;;;18.26;77.34;102116.25;4895200;29;20052;-71
2023/09/25 10:18:58;;;;;;;3.58;2.10;;;;;;;18.33;78.73;102108.09;4895392;29;20048;-71
2023/09/25 10:21:23;;;;;;;4.60;2.05;;;;;;;18.45;80.40;102103.66;4895316;29;20231;-72
2023/09/25 10:23:54;;;;;;;8.63;2.13;;;;;;;18.54;80.11;102112.31;4895273;29;20035;-72
2023/09/25 10:26:22;;;;;;;3.60;2.00;;;;;;;18.62;79.90;102109.34;4895386;29;20033;-72
2023/09/25 10:29:18;;;;;;;5.78;2.38;;;;;;;18.66;79.93;102105.16;4895290;29;20040;-72
2023/09/25 10:31:47;;;;;;;1.70;1.30;;;;;;;18.61;78.33;102105.00;4879918;29;20064;-71
2023/09/25 10:34:12;;;;;;;4.45;2.00;;;;;;;18.60;79.46;102097.91;4895047;29;20032;-72
2023/09/25 10:36:43;;;;;;;4.60;1.90;;;;;;;18.64;76.83;102101.84;4893786;29;20032;-71
2023/09/25 10:39:13;;;;;;;3.60;2.30;;;;;;;18.64;78.11;102107.25;4894760;29;20028;-71
2023/09/25 10:41:39;;;;;;;3.35;1.60;;;;;;;18.73;77.61;102110.50;4894730;29;20028;-71
2023/09/25 10:44:05;;;;;;;6.53;1.70;;;;;;;18.79;77.92;102110.50;4894503;29;20037;-71
2023/09/25 10:46:30;;;;;;;3.53;1.80;;;;;;;18.91;78.68;102102.47;4894812;29;20571;-71
2023/09/25 10:48:56;;;;;;;5.40;2.85;;;;;;;18.98;78.03;102097.84;4894876;29;20148;-71
2023/09/25 10:51:22;;;;;;;2.45;1.50;;;;;;;19.07;78.89;102094.84;4894791;29;20040;-71
2023/09/25 10:53:47;;;;;;;6.10;1.85;;;;;;;19.10;76.95;102091.69;4894251;29;20492;-71
2023/09/25 10:56:14;;;;;;;3.15;1.85;;;;;;;19.21;79.06;102093.69;4894826;29;20056;-71
2023/09/25 10:58:40;;;;;;;6.15;1.50;;;;;;;19.34;78.02;102095.44;4895301;29;20046;-72
2023/09/25 11:01:05;;;;;;;3.65;1.50;;;;;;;19.44;79.01;102087.59;4893592;29;20025;-71
2023/09/25 11:03:31;;;;;;;4.18;2.53;;;;;;;19.49;76.50;102080.47;4894748;29;20400;-71
2023/09/25 11:05:58;;;;;;;4.40;2.65;;;;;;;19.54;76.18;102082.47;4894783;29;20112;-71
2023/09/25 11:08:26;;;;;;;3.30;2.22;;;;;;;19.51;74.99;102074.00;4893178;29;20032;-69
2023/09/25 11:10:51;;;;;;;1.92;1.63;;;;;;;19.56;76.80;102087.69;4869187;29;20185;-75
2023/09/25 11:13:17;;;;;;;5.30;1.80;;;;;;;19.57;77.41;102089.31;4887108;29;21012;-71
2023/09/25 11:15:44;;;;;;;2.47;1.42;;;;;;;19.62;78.78;102094.88;4869868;29;20039;-71